Nearby METAR Reports

Actuele Vliegveldwaarnemingen NL (METAR).Zie KNMI uitleg METAR hier

EHAM - Amsterdam/Schiph, Netherlands
Distance from station: ONO 18km
Updated: 01/10/2020 00:55
Helder
Helder
 Wind van ZO
Wind: ZO 19 km/h
Temperatuur: 15°C
Dauwpunt: 13°C
Vochtigheid: 88%
Barometer: 1006 hPa
Overzicht: Helder
Visibility: greater than 10 km
2020/09/30 22:55 EHAM 302255Z 14010KT CAVOK 15/13 Q1006 NOSIG
EHKD - DE KOOY/DE KOOY
Updated: 01/10/2020 00:55
Zwaar bewolkt
Zwaar bewolkt
 Wind van ZZO
Wind: ZZO 20 km/h
Temperatuur: 16°C
Dauwpunt: 14°C
Vochtigheid: 88%
Barometer: 1006 hPa
Clouds: Zwaar bewolkt
Visibility: 10 km
Cloud details: Zwaar bewolkt 2804 m
2020/09/30 22:55 EHKD 302255Z AUTO 16011KT 110V190 9999 OVC092 16/14 Q1006 BLU
 
EHLW - LEEUWARDEN/LEEUWARDEN
Updated: 01/10/2020 00:55
Zwaar bewolkt
Zwaar bewolkt
 Wind van ZO
Wind: ZO 17 km/h
Temperatuur: 16°C
Dauwpunt: 14°C
Vochtigheid: 88%
Barometer: 1007 hPa
Clouds: Zwaar bewolkt
Visibility: 10 km
Cloud details: Gedeeltelijk bewolkt 1890 m
Meestal bewolkt 2073 m
Zwaar bewolkt 2865 m
2020/09/30 22:55 EHLW 302255Z AUTO 14009KT 100V170 9999 SCT062 BKN068 OVC094 16/14 Q1007 BLU
EHVK - VOLKEL/VOLKEL
Updated: 01/10/2020 00:55
Zwaar bewolkt
Zwaar bewolkt
 Wind van ZO
Wind: ZO 11 km/h
Temperatuur: 16°C
Dauwpunt: 14°C
Vochtigheid: 88%
Barometer: 1008 hPa
Clouds: Zwaar bewolkt
Visibility: 10 km
Cloud details: Gedeeltelijk bewolkt 1250 m
Zwaar bewolkt 1372 m
2020/09/30 22:55 EHVK 302255Z AUTO 14006KT 100V180 9999 SCT041 OVC045 16/14 Q1008 BLU
 
EHFS - VLISSINGEN
Updated: 01/10/2020 00:55
Gedeeltelijk bewolkt
Gedeeltelijk bewolkt
 Wind van ZZO
Wind: ZZO 30 km/h
Temperatuur: 17°C
Dauwpunt: 14°C
Vochtigheid: 83%
Barometer: 1005 hPa
Clouds: Gedeeltelijk bewolkt
Visibility: 10 km
2020/09/30 22:55 EHFS 302255Z AUTO 16016KT 9999 NSC 17/14 Q1005
EHEH - EINDHOVEN/EINDHOVEN
Updated: 01/10/2020 00:55
Zwaar bewolkt
Zwaar bewolkt
 Wind van ZO
Wind: ZO 11 km/h
Temperatuur: 16°C
Dauwpunt: 14°C
Vochtigheid: 88%
Barometer: 1007 hPa
Clouds: Zwaar bewolkt
Visibility: 10 km
Cloud details: Meestal bewolkt 1707 m
Zwaar bewolkt 1859 m
2020/09/30 22:55 EHEH 302255Z AUTO 14006KT 120V190 9999 BKN056 OVC061 16/14 Q1007 BLU
 
EHGR - GILZE-RIJEN/GILZE-RIJEN
Updated: 01/10/2020 00:55
Zwaar bewolkt
Zwaar bewolkt
 Wind van ZO
Wind: ZO 13 km/h
Temperatuur: 15°C
Dauwpunt: 14°C
Vochtigheid: 94%
Barometer: 1007 hPa
Clouds: Zwaar bewolkt
Visibility: 10 km
Cloud details: Meestal bewolkt 2591 m
Zwaar bewolkt 2743 m
2020/09/30 22:55 EHGR 302255Z AUTO 14007KT 9999 BKN085 OVC090 15/14 Q1007 BLU
EHDL - ARNHEM/DEELEN
Updated: 01/10/2020 00:55
Meestal bewolkt
Meestal bewolkt
 Wind van ZZO
Wind: ZZO 13 km/h
Temperatuur: 16°C
Dauwpunt: 15°C
Vochtigheid: 94%
Barometer: 1008 hPa
Clouds: Meestal bewolkt
Visibility: 10 km
Cloud details: Gedeeltelijk bewolkt 1737 m
Meestal bewolkt 1890 m
Meestal bewolkt 2042 m
2020/09/30 22:55 EHDL 302255Z AUTO 15007KT 100V200 9999 SCT057 BKN062 BKN067 16/15 Q1008 BLU
 
EHBK - MAASTRICHT/MAASTRICHT-AACHEN
Updated: 01/10/2020 00:55
Few Clouds
Few Clouds
 Wind van Z
Wind: Z 24 km/h
Temperatuur: 16°C
Dauwpunt: 13°C
Vochtigheid: 83%
Barometer: 1008 hPa
Clouds: Few Clouds
Visibility: 10 km
Cloud details: Few Clouds 945 m
2020/09/30 22:55 EHBK 302255Z AUTO 18013KT 9999 FEW031 16/13 Q1008